Shosei Maru — JD2993 — position and weather

sailwx.info

Track history (hours):
 
Tides and Currents Weather Stations Pressure Air Temp Water Temp Dewpoint Dewpoint Depression Visibility Wind Speed Wind Dir Waves Ship Positions

Shosei Maru

Last reported at 2017-Dec-16 06:59 UTC. Time now 2017-Dec-16 07:13 UTC.
Position N 35°00' E 138°30'.

Length 68 m; draft 4 m.

Type: Cargo ship. MMSI: 431001108.

Date/timePositionNaut miles runAvg speedWind from/ knotsBaromVisibWave heightAir tempDewpointWater temp
2017-Dec-16 06:59N 35°00' E 138°30'0 0.0
2017-Dec-16 06:26N 35°00' E 138°30'0 0.0
2017-Dec-16 05:59N 35°00' E 138°30'0 0.0
2017-Dec-16 05:29N 35°00' E 138°30'0 0.0
2017-Dec-16 04:59N 35°00' E 138°30'0 0.0
2017-Dec-16 04:29N 35°00' E 138°30'0 0.0
2017-Dec-16 03:59N 35°00' E 138°30'0 0.0
2017-Dec-16 03:29N 35°00' E 138°30'0 0.0
2017-Dec-16 02:59N 35°00' E 138°30'0 0.0
2017-Dec-16 02:29N 35°00' E 138°30'0 0.0
2017-Dec-16 01:59N 35°00' E 138°30'0 0.0
2017-Dec-16 01:29N 35°00' E 138°30'0 0.0
2017-Dec-16 00:59N 35°00' E 138°30'0 0.0
2017-Dec-16 00:29N 35°00' E 138°30'0 0.0
2017-Dec-15 23:59N 35°00' E 138°30'0 0.0
2017-Dec-15 23:29N 35°00' E 138°30'0 0.0
2017-Dec-15 22:59N 35°00' E 138°30'0 0.0
2017-Dec-15 22:29N 35°00' E 138°30'0 0.0
2017-Dec-15 21:59N 35°00' E 138°30'0 0.0
2017-Dec-15 21:29N 35°00' E 138°30'0 0.3
2017-Dec-15 21:00N 35°00' E 138°30'2 4.4
2017-Dec-15 20:30N 35°01' E 138°32'510.1
2017-Dec-15 20:00N 34°56' E 138°31'611.2
2017-Dec-15 19:30N 34°52' E 138°28'611.0
2017-Dec-15 19:00N 34°47' E 138°25'511.0
2017-Dec-15 18:30N 34°42' E 138°22'611.1
2017-Dec-15 18:00N 34°37' E 138°18'168 9.4
2017-Dec-15 00:09N 33°55' E 135°02'47 8.3
2017-Dec-14 18:28N 34°38' E 135°28'0 0.0
2017-Dec-14 17:58N 34°38' E 135°28'0 0.0
2017-Dec-14 17:28N 34°38' E 135°28'0 0.0
2017-Dec-14 16:58N 34°38' E 135°28'0 0.0
2017-Dec-14 16:28N 34°38' E 135°28'0 0.0
2017-Dec-14 15:58N 34°38' E 135°28'0 0.0
2017-Dec-14 14:55N 34°38' E 135°28'0 0.0
2017-Dec-14 14:28N 34°38' E 135°28'0 0.0
2017-Dec-14 13:58N 34°38' E 135°28'0 0.1
2017-Dec-14 13:28N 34°38' E 135°27'0 0.0
2017-Dec-14 12:58N 34°38' E 135°27'0 0.1
2017-Dec-14 12:19N 34°38' E 135°28'0 0.1
2017-Dec-14 11:58N 34°38' E 135°27'0 0.1
2017-Dec-14 11:28N 34°38' E 135°28'0 0.0
2017-Dec-14 10:55N 34°38' E 135°28'0 0.1
2017-Dec-14 10:30N 34°38' E 135°27'4 7.4
2017-Dec-14 10:00N 34°38' E 135°23'5 9.4
2017-Dec-14 09:31N 34°33' E 135°22'3 5.0
2017-Dec-14 09:01N 34°31' E 135°24'0 0.0
2017-Dec-14 08:29N 34°31' E 135°24'0 0.0
2017-Dec-14 07:59N 34°31' E 135°24'0 0.0
2017-Dec-14 07:30N 34°31' E 135°24'1 1.4
2017-Dec-14 07:01N 34°32' E 135°23'1 2.7
2017-Dec-14 06:31N 34°33' E 135°22'5 9.7
2017-Dec-14 06:01N 34°38' E 135°23'3 6.9
2017-Dec-14 05:30N 34°40' E 135°25'0 0.0
2017-Dec-14 04:58N 34°40' E 135°25'0 0.0
2017-Dec-14 04:25N 34°40' E 135°25'0 0.0
2017-Dec-14 03:58N 34°40' E 135°25'0 0.0
2017-Dec-14 03:28N 34°40' E 135°25'0 0.0
2017-Dec-14 02:58N 34°40' E 135°25'0 0.0
2017-Dec-14 02:28N 34°40' E 135°25'0 0.0
2017-Dec-14 01:58N 34°40' E 135°25'0 0.2
2017-Dec-14 01:29N 34°40' E 135°25'0 0.8
2017-Dec-14 00:59N 34°40' E 135°25'0 0.0
2017-Dec-14 00:29N 34°40' E 135°25'0 0.1
2017-Dec-13 23:53N 34°40' E 135°25'0 0.1
2017-Dec-13 23:29N 34°40' E 135°25'0 0.0
2017-Dec-13 22:59N 34°40' E 135°25'0 0.0
2017-Dec-13 22:29N 34°40' E 135°25'0 0.0
2017-Dec-13 21:59N 34°40' E 135°25'0 0.0
2017-Dec-13 21:29N 34°40' E 135°25'0 0.0
2017-Dec-13 20:59N 34°40' E 135°25'0 0.0
2017-Dec-13 20:29N 34°40' E 135°25'0 0.0
2017-Dec-13 19:59N 34°40' E 135°25'0 0.1
2017-Dec-13 19:29N 34°40' E 135°25'0 0.0
2017-Dec-13 18:59N 34°40' E 135°25'0 0.0
2017-Dec-13 18:29N 34°40' E 135°25'0 0.0
2017-Dec-13 17:59N 34°40' E 135°25'0 0.0
2017-Dec-13 17:29N 34°40' E 135°25'0 0.0
2017-Dec-13 16:59N 34°40' E 135°25'0 0.0
2017-Dec-13 16:29N 34°40' E 135°25'0 0.0
2017-Dec-13 15:59N 34°40' E 135°25'0 0.0
2017-Dec-13 15:29N 34°40' E 135°25'0 0.1
2017-Dec-13 15:00N 34°40' E 135°25'2 4.5
2017-Dec-13 14:30N 34°38' E 135°23'510.6
2017-Dec-13 14:00N 34°34' E 135°19'611.2
2017-Dec-13 13:30N 34°30' E 135°15'510.6
2017-Dec-13 13:00N 34°26' E 135°11'510.4
2017-Dec-13 12:30N 34°22' E 135°07'5 9.8
2017-Dec-13 12:00N 34°18' E 135°04'4 8.9
2017-Dec-13 11:30N 34°13' E 135°02'510.2
2017-Dec-13 11:00N 34°08' E 135°02'510.1
2017-Dec-13 10:29N 34°03' E 135°03'510.1
2017-Dec-13 10:00N 33°58' E 135°03'104 7.0
2017-Dec-12 19:03N 34°38' E 136°59'110.3
2017-Dec-12 18:59N 34°38' E 136°60'14 1.3
2017-Dec-12 08:18N 34°42' E 137°15'9 0.3
2017-Dec-10 21:54N 34°34' E 137°10'5011.2
2017-Dec-10 17:26N 34°34' E 138°11'4 9.7
2017-Dec-10 16:59N 34°34' E 138°16'611.0
2017-Dec-10 16:24N 34°35' E 138°24'510.9
2017-Dec-10 15:57N 34°35' E 138°30'610.2
2017-Dec-10 15:20N 34°36' E 138°38'411.4
2017-Dec-10 15:00N 34°36' E 138°42'1011.0
2017-Dec-10 14:08N 34°37' E 138°54'211.0
2017-Dec-10 13:58N 34°38' E 138°56'510.9
2017-Dec-10 13:29N 34°41' E 139°01'812.3
2017-Dec-10 12:52N 34°47' E 139°06'511.9
2017-Dec-10 12:26N 34°52' E 139°09'511.4
2017-Dec-10 11:59N 34°55' E 139°14'710.3
2017-Dec-10 11:18N 34°58' E 139°22'3 9.7
2017-Dec-10 11:00N 34°60' E 139°24'5 9.0
2017-Dec-10 10:29N 35°02' E 139°30'510.0
2017-Dec-10 10:00N 35°04' E 139°35'510.4
2017-Dec-10 09:30N 35°07' E 139°40'611.2
2017-Dec-10 09:00N 35°11' E 139°45'510.2
2017-Dec-10 08:30N 35°16' E 139°45'611.3
2017-Dec-10 08:00N 35°21' E 139°42'510.9
2017-Dec-10 07:30N 35°27' E 139°43'2 3.7
2017-Dec-10 07:00N 35°28' E 139°42'0 0.0
2017-Dec-10 06:30N 35°28' E 139°42'0 0.0
2017-Dec-10 06:00N 35°28' E 139°42'0 0.0
2017-Dec-10 05:30N 35°28' E 139°42'0 0.0
2017-Dec-10 05:00N 35°28' E 139°42'0 0.0
2017-Dec-10 04:30N 35°28' E 139°42'0 0.0
2017-Dec-10 03:57N 35°28' E 139°42'0 0.0
2017-Dec-10 03:30N 35°28' E 139°42'0 0.0
2017-Dec-10 03:00N 35°28' E 139°42'0 0.0
2017-Dec-10 02:30N 35°28' E 139°42'0 0.0
2017-Dec-10 02:00N 35°28' E 139°42'0 0.0
2017-Dec-10 01:30N 35°28' E 139°42'0 0.0
2017-Dec-10 01:00N 35°28' E 139°42'0 0.0
2017-Dec-10 00:30N 35°28' E 139°42'0 0.1
2017-Dec-10 00:00N 35°28' E 139°42'0 0.1
2017-Dec-09 23:30N 35°28' E 139°42'0 0.0
2017-Dec-09 22:57N 35°28' E 139°42'0 0.0
2017-Dec-09 22:30N 35°28' E 139°42'0 0.0
2017-Dec-09 22:00N 35°28' E 139°42'0 0.0
2017-Dec-09 21:30N 35°28' E 139°42'0 0.0
2017-Dec-09 21:00N 35°28' E 139°42'0 0.0
2017-Dec-09 20:30N 35°28' E 139°42'0 0.2
2017-Dec-09 20:00N 35°28' E 139°42'2 3.0
2017-Dec-09 19:30N 35°27' E 139°43'0 0.0
2017-Dec-09 19:01N 35°27' E 139°43'0 0.0
2017-Dec-09 18:31N 35°27' E 139°43'0 0.0
2017-Dec-09 18:01N 35°27' E 139°43'0 0.0
2017-Dec-09 17:31N 35°27' E 139°43'0 0.0
2017-Dec-09 17:01N 35°27' E 139°43'0 0.0
2017-Dec-09 16:28N 35°27' E 139°43'0 0.0
2017-Dec-09 16:01N 35°27' E 139°43'0 0.0
2017-Dec-09 15:31N 35°27' E 139°43'0 0.0
2017-Dec-09 14:58N 35°27' E 139°43'0 0.0
2017-Dec-09 14:31N 35°27' E 139°43'0 0.0
2017-Dec-09 14:01N 35°27' E 139°43'0 0.1
2017-Dec-09 13:31N 35°27' E 139°43'0 0.0
2017-Dec-09 13:01N 35°27' E 139°43'0 0.0
2017-Dec-09 12:31N 35°27' E 139°43'0 0.0
2017-Dec-09 12:01N 35°27' E 139°43'1 1.5
2017-Dec-09 11:30N 35°26' E 139°43'4 7.4
2017-Dec-09 11:00N 35°23' E 139°46'510.6
2017-Dec-09 10:31N 35°18' E 139°45'510.7
2017-Dec-09 10:01N 35°13' E 139°47'611.0
2017-Dec-09 09:30N 35°08' E 139°46'611.1
2017-Dec-09 09:00N 35°03' E 139°41'611.9
2017-Dec-09 08:30N 34°60' E 139°36'250 9.6
2017-Dec-08 06:31N 34°16' E 134°36'310.7
2017-Dec-08 06:13N 34°18' E 134°33'26 0.9
2017-Dec-07 00:26N 34°27' E 134°04'1613.6
2017-Dec-06 23:13N 34°22' E 134°23'312.5
2017-Dec-06 23:00N 34°21' E 134°26'612.3
2017-Dec-06 22:29N 34°18' E 134°32'612.0
2017-Dec-06 22:00N 34°15' E 134°39'713.2
2017-Dec-06 21:28N 34°09' E 134°44'511.7
2017-Dec-06 21:01N 34°05' E 134°47'  
Track history (hours):
 
Tides and Currents Weather Stations Pressure Air Temp Water Temp Dewpoint Dewpoint Depression Visibility Wind Speed Wind Dir Waves Ship Positions

Shosei Maru

Last reported at 2017-Dec-16 06:59 UTC. Time now 2017-Dec-16 07:13 UTC.
Position N 35°00' E 138°30'.

Length 68 m; draft 4 m.

Type: Cargo ship. MMSI: 431001108.

Date/timePositionNaut miles runAvg speedWind from/ knotsBaromVisibWave heightAir tempDewpointWater temp
2017-Dec-16 06:59N 35°00' E 138°30'0 0.0
2017-Dec-16 06:26N 35°00' E 138°30'0 0.0
2017-Dec-16 05:59N 35°00' E 138°30'0 0.0
2017-Dec-16 05:29N 35°00' E 138°30'0 0.0
2017-Dec-16 04:59N 35°00' E 138°30'0 0.0
2017-Dec-16 04:29N 35°00' E 138°30'0 0.0
2017-Dec-16 03:59N 35°00' E 138°30'0 0.0
2017-Dec-16 03:29N 35°00' E 138°30'0 0.0
2017-Dec-16 02:59N 35°00' E 138°30'0 0.0
2017-Dec-16 02:29N 35°00' E 138°30'0 0.0
2017-Dec-16 01:59N 35°00' E 138°30'0 0.0
2017-Dec-16 01:29N 35°00' E 138°30'0 0.0
2017-Dec-16 00:59N 35°00' E 138°30'0 0.0
2017-Dec-16 00:29N 35°00' E 138°30'0 0.0
2017-Dec-15 23:59N 35°00' E 138°30'0 0.0
2017-Dec-15 23:29N 35°00' E 138°30'0 0.0
2017-Dec-15 22:59N 35°00' E 138°30'0 0.0
2017-Dec-15 22:29N 35°00' E 138°30'0 0.0
2017-Dec-15 21:59N 35°00' E 138°30'0 0.0
2017-Dec-15 21:29N 35°00' E 138°30'0 0.3
2017-Dec-15 21:00N 35°00' E 138°30'2 4.4
2017-Dec-15 20:30N 35°01' E 138°32'510.1
2017-Dec-15 20:00N 34°56' E 138°31'611.2
2017-Dec-15 19:30N 34°52' E 138°28'611.0
2017-Dec-15 19:00N 34°47' E 138°25'511.0
2017-Dec-15 18:30N 34°42' E 138°22'611.1
2017-Dec-15 18:00N 34°37' E 138°18'168 9.4
2017-Dec-15 00:09N 33°55' E 135°02'47 8.3
2017-Dec-14 18:28N 34°38' E 135°28'0 0.0
2017-Dec-14 17:58N 34°38' E 135°28'0 0.0
2017-Dec-14 17:28N 34°38' E 135°28'0 0.0
2017-Dec-14 16:58N 34°38' E 135°28'0 0.0
2017-Dec-14 16:28N 34°38' E 135°28'0 0.0
2017-Dec-14 15:58N 34°38' E 135°28'0 0.0
2017-Dec-14 14:55N 34°38' E 135°28'0 0.0
2017-Dec-14 14:28N 34°38' E 135°28'0 0.0
2017-Dec-14 13:58N 34°38' E 135°28'0 0.1
2017-Dec-14 13:28N 34°38' E 135°27'0 0.0
2017-Dec-14 12:58N 34°38' E 135°27'0 0.1
2017-Dec-14 12:19N 34°38' E 135°28'0 0.1
2017-Dec-14 11:58N 34°38' E 135°27'0 0.1
2017-Dec-14 11:28N 34°38' E 135°28'0 0.0
2017-Dec-14 10:55N 34°38' E 135°28'0 0.1
2017-Dec-14 10:30N 34°38' E 135°27'4 7.4
2017-Dec-14 10:00N 34°38' E 135°23'5 9.4
2017-Dec-14 09:31N 34°33' E 135°22'3 5.0
2017-Dec-14 09:01N 34°31' E 135°24'0 0.0
2017-Dec-14 08:29N 34°31' E 135°24'0 0.0
2017-Dec-14 07:59N 34°31' E 135°24'0 0.0
2017-Dec-14 07:30N 34°31' E 135°24'1 1.4
2017-Dec-14 07:01N 34°32' E 135°23'1 2.7
2017-Dec-14 06:31N 34°33' E 135°22'5 9.7
2017-Dec-14 06:01N 34°38' E 135°23'3 6.9
2017-Dec-14 05:30N 34°40' E 135°25'0 0.0
2017-Dec-14 04:58N 34°40' E 135°25'0 0.0
2017-Dec-14 04:25N 34°40' E 135°25'0 0.0
2017-Dec-14 03:58N 34°40' E 135°25'0 0.0
2017-Dec-14 03:28N 34°40' E 135°25'0 0.0
2017-Dec-14 02:58N 34°40' E 135°25'0 0.0
2017-Dec-14 02:28N 34°40' E 135°25'0 0.0
2017-Dec-14 01:58N 34°40' E 135°25'0 0.2
2017-Dec-14 01:29N 34°40' E 135°25'0 0.8
2017-Dec-14 00:59N 34°40' E 135°25'0 0.0
2017-Dec-14 00:29N 34°40' E 135°25'0 0.1
2017-Dec-13 23:53N 34°40' E 135°25'0 0.1
2017-Dec-13 23:29N 34°40' E 135°25'0 0.0
2017-Dec-13 22:59N 34°40' E 135°25'0 0.0
2017-Dec-13 22:29N 34°40' E 135°25'0 0.0
2017-Dec-13 21:59N 34°40' E 135°25'0 0.0
2017-Dec-13 21:29N 34°40' E 135°25'0 0.0
2017-Dec-13 20:59N 34°40' E 135°25'0 0.0
2017-Dec-13 20:29N 34°40' E 135°25'0 0.0
2017-Dec-13 19:59N 34°40' E 135°25'0 0.1
2017-Dec-13 19:29N 34°40' E 135°25'0 0.0
2017-Dec-13 18:59N 34°40' E 135°25'0 0.0
2017-Dec-13 18:29N 34°40' E 135°25'0 0.0
2017-Dec-13 17:59N 34°40' E 135°25'0 0.0
2017-Dec-13 17:29N 34°40' E 135°25'0 0.0
2017-Dec-13 16:59N 34°40' E 135°25'0 0.0
2017-Dec-13 16:29N 34°40' E 135°25'0 0.0
2017-Dec-13 15:59N 34°40' E 135°25'0 0.0
2017-Dec-13 15:29N 34°40' E 135°25'0 0.1
2017-Dec-13 15:00N 34°40' E 135°25'2 4.5
2017-Dec-13 14:30N 34°38' E 135°23'510.6
2017-Dec-13 14:00N 34°34' E 135°19'611.2
2017-Dec-13 13:30N 34°30' E 135°15'510.6
2017-Dec-13 13:00N 34°26' E 135°11'510.4
2017-Dec-13 12:30N 34°22' E 135°07'5 9.8
2017-Dec-13 12:00N 34°18' E 135°04'4 8.9
2017-Dec-13 11:30N 34°13' E 135°02'510.2
2017-Dec-13 11:00N 34°08' E 135°02'510.1
2017-Dec-13 10:29N 34°03' E 135°03'510.1
2017-Dec-13 10:00N 33°58' E 135°03'104 7.0
2017-Dec-12 19:03N 34°38' E 136°59'110.3
2017-Dec-12 18:59N 34°38' E 136°60'14 1.3
2017-Dec-12 08:18N 34°42' E 137°15'9 0.3
2017-Dec-10 21:54N 34°34' E 137°10'5011.2
2017-Dec-10 17:26N 34°34' E 138°11'4 9.7
2017-Dec-10 16:59N 34°34' E 138°16'611.0
2017-Dec-10 16:24N 34°35' E 138°24'510.9
2017-Dec-10 15:57N 34°35' E 138°30'610.2
2017-Dec-10 15:20N 34°36' E 138°38'411.4
2017-Dec-10 15:00N 34°36' E 138°42'1011.0
2017-Dec-10 14:08N 34°37' E 138°54'211.0
2017-Dec-10 13:58N 34°38' E 138°56'510.9
2017-Dec-10 13:29N 34°41' E 139°01'812.3
2017-Dec-10 12:52N 34°47' E 139°06'511.9
2017-Dec-10 12:26N 34°52' E 139°09'511.4
2017-Dec-10 11:59N 34°55' E 139°14'710.3
2017-Dec-10 11:18N 34°58' E 139°22'3 9.7
2017-Dec-10 11:00N 34°60' E 139°24'5 9.0
2017-Dec-10 10:29N 35°02' E 139°30'510.0
2017-Dec-10 10:00N 35°04' E 139°35'510.4
2017-Dec-10 09:30N 35°07' E 139°40'611.2
2017-Dec-10 09:00N 35°11' E 139°45'510.2
2017-Dec-10 08:30N 35°16' E 139°45'611.3
2017-Dec-10 08:00N 35°21' E 139°42'510.9
2017-Dec-10 07:30N 35°27' E 139°43'2 3.7
2017-Dec-10 07:00N 35°28' E 139°42'0 0.0
2017-Dec-10 06:30N 35°28' E 139°42'0 0.0
2017-Dec-10 06:00N 35°28' E 139°42'0 0.0
2017-Dec-10 05:30N 35°28' E 139°42'0 0.0
2017-Dec-10 05:00N 35°28' E 139°42'0 0.0
2017-Dec-10 04:30N 35°28' E 139°42'0 0.0
2017-Dec-10 03:57N 35°28' E 139°42'0 0.0
2017-Dec-10 03:30N 35°28' E 139°42'0 0.0
2017-Dec-10 03:00N 35°28' E 139°42'0 0.0
2017-Dec-10 02:30N 35°28' E 139°42'0 0.0
2017-Dec-10 02:00N 35°28' E 139°42'0 0.0
2017-Dec-10 01:30N 35°28' E 139°42'0 0.0
2017-Dec-10 01:00N 35°28' E 139°42'0 0.0
2017-Dec-10 00:30N 35°28' E 139°42'0 0.1
2017-Dec-10 00:00N 35°28' E 139°42'0 0.1
2017-Dec-09 23:30N 35°28' E 139°42'0 0.0
2017-Dec-09 22:57N 35°28' E 139°42'0 0.0
2017-Dec-09 22:30N 35°28' E 139°42'0 0.0
2017-Dec-09 22:00N 35°28' E 139°42'0 0.0
2017-Dec-09 21:30N 35°28' E 139°42'0 0.0
2017-Dec-09 21:00N 35°28' E 139°42'0 0.0
2017-Dec-09 20:30N 35°28' E 139°42'0 0.2
2017-Dec-09 20:00N 35°28' E 139°42'2 3.0
2017-Dec-09 19:30N 35°27' E 139°43'0 0.0
2017-Dec-09 19:01N 35°27' E 139°43'0 0.0
2017-Dec-09 18:31N 35°27' E 139°43'0 0.0
2017-Dec-09 18:01N 35°27' E 139°43'0 0.0
2017-Dec-09 17:31N 35°27' E 139°43'0 0.0
2017-Dec-09 17:01N 35°27' E 139°43'0 0.0
2017-Dec-09 16:28N 35°27' E 139°43'0 0.0
2017-Dec-09 16:01N 35°27' E 139°43'0 0.0
2017-Dec-09 15:31N 35°27' E 139°43'0 0.0
2017-Dec-09 14:58N 35°27' E 139°43'0 0.0
2017-Dec-09 14:31N 35°27' E 139°43'0 0.0
2017-Dec-09 14:01N 35°27' E 139°43'0 0.1
2017-Dec-09 13:31N 35°27' E 139°43'0 0.0
2017-Dec-09 13:01N 35°27' E 139°43'0 0.0
2017-Dec-09 12:31N 35°27' E 139°43'0 0.0
2017-Dec-09 12:01N 35°27' E 139°43'1 1.5
2017-Dec-09 11:30N 35°26' E 139°43'4 7.4
2017-Dec-09 11:00N 35°23' E 139°46'510.6
2017-Dec-09 10:31N 35°18' E 139°45'510.7
2017-Dec-09 10:01N 35°13' E 139°47'611.0
2017-Dec-09 09:30N 35°08' E 139°46'611.1
2017-Dec-09 09:00N 35°03' E 139°41'611.9
2017-Dec-09 08:30N 34°60' E 139°36'250 9.6
2017-Dec-08 06:31N 34°16' E 134°36'310.7
2017-Dec-08 06:13N 34°18' E 134°33'26 0.9
2017-Dec-07 00:26N 34°27' E 134°04'1613.6
2017-Dec-06 23:13N 34°22' E 134°23'312.5
2017-Dec-06 23:00N 34°21' E 134°26'612.3
2017-Dec-06 22:29N 34°18' E 134°32'612.0
2017-Dec-06 22:00N 34°15' E 134°39'713.2
2017-Dec-06 21:28N 34°09' E 134°44'511.7
2017-Dec-06 21:01N 34°05' E 134°47'  

Dump ship's entire track history